METAR Data
IDs: Format: Raw Decoded Include TAF

Data at: 0531 UTC 26 Sep 2018

KCAK 260451Z 21014KT 10SM OVC014 23/20 A2997 RMK AO2 SLP142 T02280200 402330178 $
KCAK 260434Z 22011KT 10SM BKN014 BKN022 OVC033 23/20 A2998 RMK AO2 T02280200 $
KCAK 260351Z 20012KT 10SM OVC016 23/20 A2998 RMK AO2 RAB0256E06 SLP143 P0000 T02280200 $
KCAK 260251Z 20011KT 10SM BKN016 OVC027 23/20 A2998 RMK AO2 SLP144 60000 T02280200 58007 $
KCAK 260151Z 19012KT 10SM SCT012 BKN033 OVC049 22/20 A2998 RMK AO2 RAB0059E15 SLP147 P0000 T02220200
KCAK 260128Z 19010KT 10SM BKN014 BKN055 OVC080 22/20 A2999 RMK AO2 RAB0059E15 P0000 T02220200
KCAK 260051Z 19012KT 10SM SCT012 BKN055 OVC120 22/19 A3000 RMK AO2 SLP152 T02220194
KCAK 252351Z 19013G22KT 10SM BKN012 OVC024 22/19 A3000 RMK AO2 SLP153 60000 T02220194 10228 20211 51001
KCAK 252251Z 19012KT 10SM BKN011 OVC033 22/19 A3000 RMK AO2 SLP151 T02220194
KCAK 252151Z 20013KT 8SM OVC009 22/19 A3001 RMK AO2 SLP156 T02220194
KCAK 252051Z 19008KT 10SM OVC012 22/19 A3000 RMK AO2 SLP151 60000 T02220194 58024
KCAK 252006Z 20012KT 10SM OVC011 22/19 A3002 RMK AO2 T02220194
KCAK 251951Z 20013KT 8SM OVC008 22/19 A3003 RMK AO2 SLP162 T02220194
KCAK 251851Z 21012KT 6SM BR OVC007 22/19 A3006 RMK AO2 DZB25E48 SLP172 P0000 T02170194
KCAK 251751Z 20013KT 8SM OVC007 22/19 A3007 RMK AO2 DZB08E35 SLP178 P0000 60003 T02170189 10217 20189 58008
KCAK 251651Z 19011KT 7SM BKN007 OVC014 21/19 A3008 RMK AO2 RAE11 SLP180 P0002 T02060189
KCAK 251551Z 20010KT 5SM -RA BR BKN006 OVC012 21/18 A3009 RMK AO2 LTG DSNT SE AND W DZB20E31RAB31 SLP185 P0001 T02060183
KCAK 251451Z 19012G21KT 7SM OVC006 20/18 A3010 RMK AO2 SLP186 60000 T02000178 56003
KCAK 251351Z 19010KT 7SM BKN008 OVC016 20/18 A3010 RMK AO2 SLP188 T02000178
KCAK 251251Z 18013KT 5SM BR OVC008 19/18 A3009 RMK AO2 DZE14 SLP186 P0000 T01940178
KCAK 251151Z 20011KT 3SM -DZ BR OVC006 19/17 A3011 RMK AO2 DZB24 SLP190 P0000 60045 70168 T01890172 10189 20178 53006
KCAK 251051Z 18012KT 5SM BR BKN008 OVC014 19/17 A3010 RMK AO2 SLP187 T01890172
KCAK 250951Z 18012G19KT 10SM BKN008 OVC014 19/17 A3009 RMK AO2 RAE0855B12E36 CIG 006V011 SLP184 P0000 T01890172
KCAK 250941Z 18012KT 8SM BKN008 OVC014 19/17 A3009 RMK AO2 RAE0855B12E36 P0000 T01890172
KCAK 250851Z 18013KT 2 1/2SM -RA BKN008 OVC014 19/17 A3009 RMK AO2 SFC VIS 9 CIG 005V010 SLP184 P0013 60045 T01890167 58003
KCAK 250822Z 18013KT 2 1/2SM -RA BR SCT006 OVC011 18/17 A3009 RMK AO2 SFC VIS 5 P0011 T01830167
KCAK 250751Z 17013KT 2 1/2SM -RA BR BKN006 OVC011 18/17 A3009 RMK AO2 SFC VIS 4 SLP185 P0015 T01830167
KCAK 250651Z 16015KT 2 1/2SM R23/6000VP6000FT -RA BR BKN007 OVC010 18/16 A3010 RMK AO2 SLP188 P0017 T01780161
KCAK 250648Z 16016KT 2SM R23/6000VP6000FT RA BR BKN007 OVC010 18/16 A3010 RMK AO2 TWR VIS 2 1/2 P0017
KCAK 250551Z 16016KT 6SM -RA BR BKN007 OVC011 18/16 A3011 RMK AO2 CIG 005V009 SLP191 P0009 60030 T01780161 10183 20178 58018
KCAK 250451Z 16013KT 5SM -RA BR OVC007 18/16 A3013 RMK AO2 CIG 005V009 SLP199 P0011 T01780161 402000133
KCAK 250351Z 15012KT 10SM -RA OVC009 18/16 A3016 RMK AO2 CIG 005V013 SLP208 P0001 T01780161
KCAK 250251Z 15015KT 10SM -RA BKN007 OVC014 18/16 A3016 RMK AO2 SLP209 P0001 60009 T01830161 53004
KCAK 250151Z 15015KT 10SM -RA OVC007 18/16 A3016 RMK AO2 SLP209 P0001 T01780161
KCAK 250051Z 14013KT 7SM -RA OVC009 18/16 A3015 RMK AO2 SLP209 P0007 T01780161
KCAK 242351Z 15012G20KT 6SM -RA BR OVC008 18/16 A3015 RMK AO2 SLP207 P0006 60093 T01780161 10194 20178 58004
KCAK 242251Z 14013G20KT 6SM -RA BR OVC008 18/16 A3016 RMK AO2 SLP210 P0007 T01830161
KCAK 242151Z 14014KT 5SM -RA BR OVC007 18/16 A3016 RMK AO2 SLP211 P0009 T01830161
KCAK 242102Z 14010KT 3SM RA BR BKN008 OVC027 18/17 A3017 RMK AO2 P0003 T01830167
KCAK 242051Z 14011KT 2 1/2SM R23/5500VP6000FT RA BR BKN010 OVC027 18/17 A3016 RMK AO2 TWR VIS 3 SLP212 P0058 60071 T01830167 56011
KCAK 242035Z 13014KT 2 1/2SM R23/6000VP6000FT RA BR BKN011 OVC036 18/17 A3016 RMK AO2 TWR VIS 3 P0047 T01830167
KCAK 242015Z 14014KT 1SM R23/3000VP6000FT +RA BR OVC007 18/16 A3017 RMK AO2 SFC VIS 1 1/2 P0011 T01830161
KCAK 241951Z 14010KT 4SM RA OVC012 19/16 A3017 RMK AO2 SLP214 P0011 T01890161
KCAK 241937Z 14011KT 4SM -RA BR OVC012 19/17 A3018 RMK AO2 P0007 T01890167
KCAK 241851Z 14008KT 8SM -RA OVC015 19/16 A3019 RMK AO2 SLP220 P0002 T01890161
KCAK 241751Z 14011KT 10SM -RA OVC018 19/16 A3020 RMK AO2 RAB32 SLP224 P0000 60000 T01940156 10200 20139 58007